Terminal Aerodrome Forecast
Issued by NWS

Home | Current Version | Previous Version | Text Only | Print | Product List | Glossary On
Versions: 1 2 3 4 5 6 7 8 9 10 11 12 13 14 15 16 17 18 19 20 21 22 23 24 25 26 27 28 29 30 31 32 33
000
FTUS46 KOTX 280540
TAFSFF
TAF
KSFF 280540Z 2806/2906 23009KT P6SM -SHRA VCTS SCT050 BKN080CB
      OVC100
     FM280900 23014G23KT P6SM -SHRA FEW025 BKN040 OVC060
     FM281100 23016G25KT P6SM SHRA BKN025 OVC040
     FM281300 23023G32KT P6SM FEW025 SCT080
     FM282100 24018G28KT P6SM SCT050
     FM290200 23004KT P6SM FEW250=

USA.gov is the U.S. government's official web portal to all federal, state and local government web resources and services.